Airfield :
LOGIN :

Register | Disclaimer

   EN    FR    IT 

 










Legend :    VFR   Marginal VFR   IFR   Intensive IFR   Very Intensive IFR
Visi :
Ceiling :
>= 8 km
>= 3000ft
5 to 8 km
1000 to 3000 ft
1500m to 5 km
500 to 1000 ft
800 to 1500m
200 to 500 ft
< 800m
< 200 ft
Symbols :   Thunderstorms  Fog  Heavy snow  Heavy precipitations  Wind > 20 kt
SIGMETs :     Misc.  Thunderstorms  Icing  Turbulence  Mountain Waves  Volcanic Ashes






- Airport Elevation : 502 ft
- IATA code : ORK


EICK - Cork

CURRENT METAR :
  • 050700Z 30012KT 9999 SCT014 BKN070 BKN100 11/08 Q1004 NOSIG

EXPIRED METARs :
  • 050630Z 31014KT 9999 SCT012 BKN070 11/08 Q1004 NOSIG
  • 050600Z 30018KT 9999 SCT013 BKN070 11/08 Q1004 NOSIG
  • 050530Z 30017KT 9999 BKN014 BKN022 11/08 Q1004 NOSIG
  • 050500Z 30015KT 9999 SCT015 SCT030 BKN090 11/08 Q1004 NOSIG
  • 050430Z 30015KT 9999 FEW009 SCT026 BKN090 10/08 Q1004 NOSIG

TAF COR TAF EICK
Valid from the 05 at 06:00 until the 06 at 06:00 UTC


050531Z 0506/0606 31013KT 9999 FEW009 SCT025
TEMPO 0506/0509 BKN014
PROB30
TEMPO 0506/0508 BKN009
BECMG 0512/0514 33015G25KT
TEMPO 0513/0519 -SHRA FEW018CB
PROB40
TEMPO 0516/0519 33020G35KT



MET'MAP, your aeronautical weather chart ! - Copyright ORBIFLY December 2007 - Disclaimer

ORBIFLY MET'MAP TEAM :

Programming & Development : Alexandra Zaïnal
Concept & original design : Baudouin d'Aumeries
Assistance for programming : Marc-Olivier Méhu
Technical & hardware support : Manuel Goepfert

Contact : metmap@orbifly.com




SOURCES & CREDITS :

   NOAA